Terminal Aerodrome Forecast
Issued by NWS Upton, NY

Home | Current Version | Previous Version | Text Only | Print | Product List | Glossary On
Versions: 1 2 3 4 5 6 7 8 9 10 11 12 13 14 15 16 17 18 19 20 21 22 23 24 25 26 27 28 29 30 31 32 33 34 35 36 37 38
000
FTUS41 KOKX 280810 AAC
TAFISP
TAF AMD
KISP 280810Z 2808/2906 26004KT P6SM OVC004
      TEMPO 2811/2812 BKN006
     FM281200 19005KT P6SM FEW250
     FM281600 18009KT P6SM FEW250
     FM281800 19011KT P6SM SCT060 SCT250
     FM282100 19009KT P6SM FEW060 BKN200
     FM290000 18005KT P6SM FEW070 BKN150
     FM290200 18004KT P6SM VCSH FEW080 BKN150=

USA.gov is the U.S. government's official web portal to all federal, state and local government web resources and services.